Mount Pleasant, Arkansas
Current Conditions -  °F | °C
As of 2:35 PM on Monday 26 Jan 2015 (Local Time) from KBVX Reporting Station
Clear Clear  
Wind Chill: 55°   Ceiling: Unl
Heat Index: 55°   Visibility: 10mi
Dew Point: 30°   Wind: 7mph
Humidity: 38%   Direction: 200°SSW
Pressure: 29.95"   Gusts: NA
Location:  35.96°N, 91.76°W
Report Text: KBVX 262035Z AUTO 20006KT 10SM CLR 13/M01 A2995 RMK AO1
Loading
Personal Weather Stations






























Interactive Weather Map New forecast layout! Learn more

10-Day Weather Forecast

Advertisements
Track Severe Weather on mobile